sensor_id;sensor_type;location;lat;lon;timestamp;P1;durP1;ratioP1;P2;durP2;ratioP2
9763;SDS011;4921;43.214;27.936;2023-02-01T00:01:14;8.53;;;7.10;;
9763;SDS011;4921;43.214;27.936;2023-02-01T00:03:41;8.27;;;7.07;;
9763;SDS011;4921;43.214;27.936;2023-02-01T00:06:08;10.20;;;7.70;;
9763;SDS011;4921;43.214;27.936;2023-02-01T00:08:36;9.43;;;7.50;;
9763;SDS011;4921;43.214;27.936;2023-02-01T00:11:04;9.67;;;7.73;;
9763;SDS011;4921;43.214;27.936;2023-02-01T00:13:34;10.80;;;7.93;;
9763;SDS011;4921;43.214;27.936;2023-02-01T00:16:03;19.17;;;8.50;;
9763;SDS011;4921;43.214;27.936;2023-02-01T00:18:31;11.17;;;8.43;;
9763;SDS011;4921;43.214;27.936;2023-02-01T00:20:58;10.93;;;7.80;;
9763;SDS011;4921;43.214;27.936;2023-02-01T00:23:25;12.27;;;8.70;;
9763;SDS011;4921;43.214;27.936;2023-02-01T00:25:52;10.90;;;8.30;;
9763;SDS011;4921;43.214;27.936;2023-02-01T00:28:20;10.87;;;8.20;;
9763;SDS011;4921;43.214;27.936;2023-02-01T00:30:54;11.23;;;9.13;;
9763;SDS011;4921;43.214;27.936;2023-02-01T00:33:22;12.03;;;8.37;;
9763;SDS011;4921;43.214;27.936;2023-02-01T00:35:49;9.77;;;8.40;;
9763;SDS011;4921;43.214;27.936;2023-02-01T00:38:17;9.43;;;8.13;;
9763;SDS011;4921;43.214;27.936;2023-02-01T00:40:44;10.30;;;9.10;;
9763;SDS011;4921;43.214;27.936;2023-02-01T00:43:10;10.33;;;8.30;;
9763;SDS011;4921;43.214;27.936;2023-02-01T00:45:39;11.93;;;8.57;;
9763;SDS011;4921;43.214;27.936;2023-02-01T00:48:06;12.43;;;9.10;;
9763;SDS011;4921;43.214;27.936;2023-02-01T00:50:33;10.87;;;8.87;;
9763;SDS011;4921;43.214;27.936;2023-02-01T00:53:00;10.83;;;9.03;;
9763;SDS011;4921;43.214;27.936;2023-02-01T00:55:27;12.97;;;9.67;;
9763;SDS011;4921;43.214;27.936;2023-02-01T00:57:54;10.43;;;8.23;;
9763;SDS011;4921;43.214;27.936;2023-02-01T01:00:21;10.27;;;8.43;;
9763;SDS011;4921;43.214;27.936;2023-02-01T01:02:49;11.80;;;8.90;;
9763;SDS011;4921;43.214;27.936;2023-02-01T01:05:16;10.83;;;8.43;;
9763;SDS011;4921;43.214;27.936;2023-02-01T01:07:43;12.37;;;9.33;;
9763;SDS011;4921;43.214;27.936;2023-02-01T01:10:10;12.17;;;9.30;;
9763;SDS011;4921;43.214;27.936;2023-02-01T01:12:37;12.07;;;9.10;;
9763;SDS011;4921;43.214;27.936;2023-02-01T01:15:05;11.03;;;8.53;;
9763;SDS011;4921;43.214;27.936;2023-02-01T01:17:32;11.57;;;8.03;;
9763;SDS011;4921;43.214;27.936;2023-02-01T01:20:01;11.27;;;8.57;;
9763;SDS011;4921;43.214;27.936;2023-02-01T01:22:28;11.13;;;8.93;;
9763;SDS011;4921;43.214;27.936;2023-02-01T01:24:55;10.30;;;8.20;;
9763;SDS011;4921;43.214;27.936;2023-02-01T01:27:22;10.00;;;8.43;;
9763;SDS011;4921;43.214;27.936;2023-02-01T01:29:50;11.43;;;8.57;;
9763;SDS011;4921;43.214;27.936;2023-02-01T01:32:17;12.40;;;9.07;;
9763;SDS011;4921;43.214;27.936;2023-02-01T01:34:44;11.13;;;8.90;;
9763;SDS011;4921;43.214;27.936;2023-02-01T01:37:12;10.80;;;9.00;;
9763;SDS011;4921;43.214;27.936;2023-02-01T01:39:39;11.20;;;9.00;;
9763;SDS011;4921;43.214;27.936;2023-02-01T01:42:07;11.53;;;8.93;;
9763;SDS011;4921;43.214;27.936;2023-02-01T01:44:56;14.07;;;9.77;;
9763;SDS011;4921;43.214;27.936;2023-02-01T01:47:30;12.43;;;9.77;;
9763;SDS011;4921;43.214;27.936;2023-02-01T01:50:02;9.83;;;8.70;;
9763;SDS011;4921;43.214;27.936;2023-02-01T01:52:34;11.70;;;8.97;;
9763;SDS011;4921;43.214;27.936;2023-02-01T01:55:03;11.70;;;9.20;;
9763;SDS011;4921;43.214;27.936;2023-02-01T01:57:31;12.97;;;9.33;;
9763;SDS011;4921;43.214;27.936;2023-02-01T02:00:03;12.97;;;9.30;;
9763;SDS011;4921;43.214;27.936;2023-02-01T02:02:34;11.57;;;9.03;;
9763;SDS011;4921;43.214;27.936;2023-02-01T02:05:02;10.70;;;9.20;;
9763;SDS011;4921;43.214;27.936;2023-02-01T02:07:30;14.57;;;9.97;;
9763;SDS011;4921;43.214;27.936;2023-02-01T02:10:03;13.03;;;9.67;;
9763;SDS011;4921;43.214;27.936;2023-02-01T02:12:36;11.23;;;8.87;;
9763;SDS011;4921;43.214;27.936;2023-02-01T02:15:05;11.07;;;8.80;;
9763;SDS011;4921;43.214;27.936;2023-02-01T02:17:34;11.40;;;9.03;;
9763;SDS011;4921;43.214;27.936;2023-02-01T02:20:16;11.63;;;9.43;;
9763;SDS011;4921;43.214;27.936;2023-02-01T02:26:13;12.63;;;9.40;;
9763;SDS011;4921;43.214;27.936;2023-02-01T02:35:14;11.97;;;9.20;;
9763;SDS011;4921;43.214;27.936;2023-02-01T02:37:52;12.23;;;9.13;;
9763;SDS011;4921;43.214;27.936;2023-02-01T02:40:27;13.67;;;10.17;;
9763;SDS011;4921;43.214;27.936;2023-02-01T02:43:01;11.53;;;9.50;;
9763;SDS011;4921;43.214;27.936;2023-02-01T02:45:54;13.63;;;9.93;;
9763;SDS011;4921;43.214;27.936;2023-02-01T02:48:46;11.80;;;9.40;;
9763;SDS011;4921;43.214;27.936;2023-02-01T02:51:20;13.80;;;9.93;;
9763;SDS011;4921;43.214;27.936;2023-02-01T02:54:09;10.10;;;8.77;;
9763;SDS011;4921;43.214;27.936;2023-02-01T02:56:57;13.27;;;9.43;;
9763;SDS011;4921;43.214;27.936;2023-02-01T02:59:44;14.30;;;9.60;;
9763;SDS011;4921;43.214;27.936;2023-02-01T03:02:31;12.73;;;9.47;;
9763;SDS011;4921;43.214;27.936;2023-02-01T03:05:17;13.60;;;9.67;;
9763;SDS011;4921;43.214;27.936;2023-02-01T03:10:47;11.47;;;9.53;;
9763;SDS011;4921;43.214;27.936;2023-02-01T03:13:19;12.80;;;9.73;;
9763;SDS011;4921;43.214;27.936;2023-02-01T03:15:54;12.47;;;9.07;;
9763;SDS011;4921;43.214;27.936;2023-02-01T03:18:26;13.73;;;10.57;;
9763;SDS011;4921;43.214;27.936;2023-02-01T03:20:59;13.97;;;10.33;;
9763;SDS011;4921;43.214;27.936;2023-02-01T03:23:31;14.33;;;9.90;;
9763;SDS011;4921;43.214;27.936;2023-02-01T03:26:02;13.93;;;10.17;;
9763;SDS011;4921;43.214;27.936;2023-02-01T03:28:32;15.53;;;10.27;;
9763;SDS011;4921;43.214;27.936;2023-02-01T03:31:01;18.17;;;11.53;;
9763;SDS011;4921;43.214;27.936;2023-02-01T03:33:29;16.20;;;11.80;;
9763;SDS011;4921;43.214;27.936;2023-02-01T03:38:48;16.70;;;11.30;;
9763;SDS011;4921;43.214;27.936;2023-02-01T03:41:22;15.63;;;11.23;;
9763;SDS011;4921;43.214;27.936;2023-02-01T03:43:54;16.00;;;11.10;;
9763;SDS011;4921;43.214;27.936;2023-02-01T03:46:27;14.00;;;10.20;;
9763;SDS011;4921;43.214;27.936;2023-02-01T03:48:59;16.87;;;10.17;;
9763;SDS011;4921;43.214;27.936;2023-02-01T03:51:31;12.60;;;10.27;;
9763;SDS011;4921;43.214;27.936;2023-02-01T03:54:01;12.00;;;9.83;;
9763;SDS011;4921;43.214;27.936;2023-02-01T03:56:29;15.33;;;10.73;;
9763;SDS011;4921;43.214;27.936;2023-02-01T03:58:58;15.03;;;11.60;;
9763;SDS011;4921;43.214;27.936;2023-02-01T04:01:26;14.93;;;11.27;;
9763;SDS011;4921;43.214;27.936;2023-02-01T04:03:54;13.57;;;11.50;;
9763;SDS011;4921;43.214;27.936;2023-02-01T04:06:21;13.80;;;9.53;;
9763;SDS011;4921;43.214;27.936;2023-02-01T04:08:48;14.43;;;10.23;;
9763;SDS011;4921;43.214;27.936;2023-02-01T04:11:16;14.87;;;10.37;;
9763;SDS011;4921;43.214;27.936;2023-02-01T04:13:44;16.23;;;11.00;;
9763;SDS011;4921;43.214;27.936;2023-02-01T04:16:11;13.60;;;10.00;;
9763;SDS011;4921;43.214;27.936;2023-02-01T04:18:37;13.60;;;10.70;;
9763;SDS011;4921;43.214;27.936;2023-02-01T04:21:05;14.27;;;10.63;;
9763;SDS011;4921;43.214;27.936;2023-02-01T04:23:32;14.00;;;10.73;;
9763;SDS011;4921;43.214;27.936;2023-02-01T04:25:59;15.67;;;10.70;;
9763;SDS011;4921;43.214;27.936;2023-02-01T04:28:28;15.30;;;11.30;;
9763;SDS011;4921;43.214;27.936;2023-02-01T04:30:55;14.80;;;10.63;;
9763;SDS011;4921;43.214;27.936;2023-02-01T04:33:22;16.17;;;11.10;;
9763;SDS011;4921;43.214;27.936;2023-02-01T04:35:49;13.30;;;10.60;;
9763;SDS011;4921;43.214;27.936;2023-02-01T04:38:16;15.60;;;11.43;;
9763;SDS011;4921;43.214;27.936;2023-02-01T04:40:46;14.60;;;10.53;;
9763;SDS011;4921;43.214;27.936;2023-02-01T04:43:13;14.03;;;10.90;;
9763;SDS011;4921;43.214;27.936;2023-02-01T04:45:41;15.67;;;11.20;;
9763;SDS011;4921;43.214;27.936;2023-02-01T04:48:13;18.63;;;11.43;;
9763;SDS011;4921;43.214;27.936;2023-02-01T04:50:40;18.50;;;11.23;;
9763;SDS011;4921;43.214;27.936;2023-02-01T04:53:07;14.77;;;10.60;;
9763;SDS011;4921;43.214;27.936;2023-02-01T04:55:34;16.03;;;11.37;;
9763;SDS011;4921;43.214;27.936;2023-02-01T04:58:01;16.80;;;11.13;;
9763;SDS011;4921;43.214;27.936;2023-02-01T05:00:27;15.20;;;11.70;;
9763;SDS011;4921;43.214;27.936;2023-02-01T05:02:56;17.47;;;11.67;;
9763;SDS011;4921;43.214;27.936;2023-02-01T05:05:23;18.47;;;11.03;;
9763;SDS011;4921;43.214;27.936;2023-02-01T05:07:50;17.13;;;11.60;;
9763;SDS011;4921;43.214;27.936;2023-02-01T05:10:17;18.40;;;12.10;;
9763;SDS011;4921;43.214;27.936;2023-02-01T05:12:44;15.47;;;11.03;;
9763;SDS011;4921;43.214;27.936;2023-02-01T05:15:28;15.87;;;10.83;;
9763;SDS011;4921;43.214;27.936;2023-02-01T05:17:57;16.23;;;11.00;;
9763;SDS011;4921;43.214;27.936;2023-02-01T05:20:24;16.30;;;11.70;;
9763;SDS011;4921;43.214;27.936;2023-02-01T05:22:51;17.13;;;11.53;;
9763;SDS011;4921;43.214;27.936;2023-02-01T05:25:18;12.97;;;10.97;;
9763;SDS011;4921;43.214;27.936;2023-02-01T05:27:45;15.50;;;11.07;;
9763;SDS011;4921;43.214;27.936;2023-02-01T05:30:12;15.23;;;11.13;;
9763;SDS011;4921;43.214;27.936;2023-02-01T05:32:39;14.30;;;11.20;;
9763;SDS011;4921;43.214;27.936;2023-02-01T05:35:08;15.57;;;10.97;;
9763;SDS011;4921;43.214;27.936;2023-02-01T05:37:35;14.23;;;10.73;;
9763;SDS011;4921;43.214;27.936;2023-02-01T05:40:02;14.53;;;10.43;;
9763;SDS011;4921;43.214;27.936;2023-02-01T05:42:30;16.43;;;11.27;;
9763;SDS011;4921;43.214;27.936;2023-02-01T05:44:57;17.53;;;11.70;;
9763;SDS011;4921;43.214;27.936;2023-02-01T05:47:24;14.73;;;11.80;;
9763;SDS011;4921;43.214;27.936;2023-02-01T05:49:51;18.47;;;11.27;;
9763;SDS011;4921;43.214;27.936;2023-02-01T05:52:19;15.23;;;11.13;;
9763;SDS011;4921;43.214;27.936;2023-02-01T05:54:46;16.90;;;11.80;;
9763;SDS011;4921;43.214;27.936;2023-02-01T05:57:13;12.93;;;10.33;;
9763;SDS011;4921;43.214;27.936;2023-02-01T05:59:40;17.13;;;11.30;;
9763;SDS011;4921;43.214;27.936;2023-02-01T06:02:09;13.73;;;10.30;;
9763;SDS011;4921;43.214;27.936;2023-02-01T06:04:38;20.77;;;11.20;;
9763;SDS011;4921;43.214;27.936;2023-02-01T06:07:05;14.20;;;10.60;;
9763;SDS011;4921;43.214;27.936;2023-02-01T06:09:35;16.13;;;10.90;;
9763;SDS011;4921;43.214;27.936;2023-02-01T06:12:02;13.63;;;9.73;;
9763;SDS011;4921;43.214;27.936;2023-02-01T06:14:30;14.90;;;10.80;;
9763;SDS011;4921;43.214;27.936;2023-02-01T06:16:57;14.73;;;9.60;;
9763;SDS011;4921;43.214;27.936;2023-02-01T06:19:24;12.17;;;10.13;;
9763;SDS011;4921;43.214;27.936;2023-02-01T06:21:51;12.83;;;9.87;;
9763;SDS011;4921;43.214;27.936;2023-02-01T06:24:18;12.27;;;9.73;;
9763;SDS011;4921;43.214;27.936;2023-02-01T06:26:47;14.77;;;9.70;;
9763;SDS011;4921;43.214;27.936;2023-02-01T06:29:14;15.17;;;10.30;;
9763;SDS011;4921;43.214;27.936;2023-02-01T06:31:41;14.83;;;10.20;;
9763;SDS011;4921;43.214;27.936;2023-02-01T06:34:09;13.27;;;10.03;;
9763;SDS011;4921;43.214;27.936;2023-02-01T06:36:35;15.40;;;10.93;;
9763;SDS011;4921;43.214;27.936;2023-02-01T06:39:03;15.63;;;10.20;;
9763;SDS011;4921;43.214;27.936;2023-02-01T06:41:30;15.73;;;9.97;;
9763;SDS011;4921;43.214;27.936;2023-02-01T06:44:01;18.27;;;11.20;;
9763;SDS011;4921;43.214;27.936;2023-02-01T06:46:28;20.40;;;10.37;;
9763;SDS011;4921;43.214;27.936;2023-02-01T06:48:54;13.77;;;10.73;;
9763;SDS011;4921;43.214;27.936;2023-02-01T06:51:22;16.53;;;10.40;;
9763;SDS011;4921;43.214;27.936;2023-02-01T06:53:50;17.03;;;10.77;;
9763;SDS011;4921;43.214;27.936;2023-02-01T06:56:17;17.23;;;10.47;;
9763;SDS011;4921;43.214;27.936;2023-02-01T06:58:45;15.60;;;11.07;;
9763;SDS011;4921;43.214;27.936;2023-02-01T07:01:13;17.07;;;10.47;;
9763;SDS011;4921;43.214;27.936;2023-02-01T07:03:41;13.97;;;8.90;;
9763;SDS011;4921;43.214;27.936;2023-02-01T07:06:08;12.13;;;9.50;;
9763;SDS011;4921;43.214;27.936;2023-02-01T07:08:36;10.50;;;8.30;;
9763;SDS011;4921;43.214;27.936;2023-02-01T07:11:04;10.50;;;8.60;;
9763;SDS011;4921;43.214;27.936;2023-02-01T07:13:32;11.07;;;8.70;;
9763;SDS011;4921;43.214;27.936;2023-02-01T07:15:59;11.07;;;8.70;;
9763;SDS011;4921;43.214;27.936;2023-02-01T07:18:28;14.50;;;8.57;;
9763;SDS011;4921;43.214;27.936;2023-02-01T07:20:56;11.90;;;8.53;;
9763;SDS011;4921;43.214;27.936;2023-02-01T07:23:23;9.20;;;8.10;;
9763;SDS011;4921;43.214;27.936;2023-02-01T07:25:52;9.73;;;7.67;;
9763;SDS011;4921;43.214;27.936;2023-02-01T07:28:20;10.03;;;8.00;;
9763;SDS011;4921;43.214;27.936;2023-02-01T07:30:47;12.13;;;8.93;;
9763;SDS011;4921;43.214;27.936;2023-02-01T07:33:16;10.27;;;8.17;;
9763;SDS011;4921;43.214;27.936;2023-02-01T07:35:46;10.20;;;8.37;;
9763;SDS011;4921;43.214;27.936;2023-02-01T07:38:13;13.23;;;7.93;;
9763;SDS011;4921;43.214;27.936;2023-02-01T07:40:40;10.87;;;9.10;;
9763;SDS011;4921;43.214;27.936;2023-02-01T07:43:07;13.30;;;8.93;;
9763;SDS011;4921;43.214;27.936;2023-02-01T07:45:35;11.20;;;7.97;;
9763;SDS011;4921;43.214;27.936;2023-02-01T07:48:02;10.80;;;8.27;;
9763;SDS011;4921;43.214;27.936;2023-02-01T07:50:30;11.60;;;8.23;;
9763;SDS011;4921;43.214;27.936;2023-02-01T07:52:59;12.80;;;9.73;;
9763;SDS011;4921;43.214;27.936;2023-02-01T07:55:26;15.63;;;11.13;;
9763;SDS011;4921;43.214;27.936;2023-02-01T07:57:56;14.07;;;10.47;;
9763;SDS011;4921;43.214;27.936;2023-02-01T08:00:23;13.23;;;10.10;;
9763;SDS011;4921;43.214;27.936;2023-02-01T08:03:08;11.40;;;9.77;;
9763;SDS011;4921;43.214;27.936;2023-02-01T08:05:35;12.70;;;9.47;;
9763;SDS011;4921;43.214;27.936;2023-02-01T08:08:04;11.03;;;9.53;;
9763;SDS011;4921;43.214;27.936;2023-02-01T08:10:32;14.40;;;10.27;;
9763;SDS011;4921;43.214;27.936;2023-02-01T08:13:00;14.23;;;10.40;;
9763;SDS011;4921;43.214;27.936;2023-02-01T08:15:28;18.20;;;10.30;;
9763;SDS011;4921;43.214;27.936;2023-02-01T08:17:55;12.90;;;9.77;;
9763;SDS011;4921;43.214;27.936;2023-02-01T08:20:23;12.40;;;9.07;;
9763;SDS011;4921;43.214;27.936;2023-02-01T08:22:52;10.83;;;9.37;;
9763;SDS011;4921;43.214;27.936;2023-02-01T08:25:37;13.83;;;9.30;;
9763;SDS011;4921;43.214;27.936;2023-02-01T08:28:04;13.13;;;9.80;;
9763;SDS011;4921;43.214;27.936;2023-02-01T08:30:31;13.50;;;9.27;;
9763;SDS011;4921;43.214;27.936;2023-02-01T08:32:59;13.30;;;9.20;;
9763;SDS011;4921;43.214;27.936;2023-02-01T08:35:26;16.73;;;9.10;;
9763;SDS011;4921;43.214;27.936;2023-02-01T08:37:53;10.43;;;9.13;;
9763;SDS011;4921;43.214;27.936;2023-02-01T08:40:20;10.53;;;8.40;;
9763;SDS011;4921;43.214;27.936;2023-02-01T08:42:48;13.10;;;7.90;;
9763;SDS011;4921;43.214;27.936;2023-02-01T08:45:19;8.83;;;7.67;;
9763;SDS011;4921;43.214;27.936;2023-02-01T08:47:47;12.33;;;7.53;;
9763;SDS011;4921;43.214;27.936;2023-02-01T08:50:14;8.90;;;7.03;;
9763;SDS011;4921;43.214;27.936;2023-02-01T08:52:41;7.57;;;6.63;;
9763;SDS011;4921;43.214;27.936;2023-02-01T08:55:09;8.17;;;6.90;;
9763;SDS011;4921;43.214;27.936;2023-02-01T08:57:36;10.03;;;7.60;;
9763;SDS011;4921;43.214;27.936;2023-02-01T09:00:06;10.90;;;8.73;;
9763;SDS011;4921;43.214;27.936;2023-02-01T09:02:35;8.97;;;8.07;;
9763;SDS011;4921;43.214;27.936;2023-02-01T09:05:02;10.97;;;8.93;;
9763;SDS011;4921;43.214;27.936;2023-02-01T09:07:29;10.90;;;9.03;;
9763;SDS011;4921;43.214;27.936;2023-02-01T09:09:56;11.37;;;8.60;;
9763;SDS011;4921;43.214;27.936;2023-02-01T09:12:26;7.97;;;7.17;;
9763;SDS011;4921;43.214;27.936;2023-02-01T09:14:53;8.33;;;6.83;;
9763;SDS011;4921;43.214;27.936;2023-02-01T09:17:22;7.90;;;7.10;;
9763;SDS011;4921;43.214;27.936;2023-02-01T09:19:49;11.60;;;7.33;;
9763;SDS011;4921;43.214;27.936;2023-02-01T09:22:16;9.30;;;8.20;;
9763;SDS011;4921;43.214;27.936;2023-02-01T09:24:43;12.83;;;9.50;;
9763;SDS011;4921;43.214;27.936;2023-02-01T09:27:10;9.67;;;8.63;;
9763;SDS011;4921;43.214;27.936;2023-02-01T09:29:37;9.40;;;7.70;;
9763;SDS011;4921;43.214;27.936;2023-02-01T09:32:04;9.40;;;7.90;;
9763;SDS011;4921;43.214;27.936;2023-02-01T09:34:33;8.80;;;7.00;;
9763;SDS011;4921;43.214;27.936;2023-02-01T09:37:00;7.43;;;6.30;;
9763;SDS011;4921;43.214;27.936;2023-02-01T09:39:27;8.83;;;6.57;;
9763;SDS011;4921;43.214;27.936;2023-02-01T09:41:58;9.23;;;6.10;;
9763;SDS011;4921;43.214;27.936;2023-02-01T09:44:39;9.73;;;6.43;;
9763;SDS011;4921;43.214;27.936;2023-02-01T09:47:14;10.73;;;6.13;;
9763;SDS011;4921;43.214;27.936;2023-02-01T09:49:48;8.73;;;5.73;;
9763;SDS011;4921;43.214;27.936;2023-02-01T09:52:20;7.60;;;5.87;;
9763;SDS011;4921;43.214;27.936;2023-02-01T09:54:55;10.27;;;5.97;;
9763;SDS011;4921;43.214;27.936;2023-02-01T09:57:28;5.90;;;5.20;;
9763;SDS011;4921;43.214;27.936;2023-02-01T10:00:07;6.87;;;5.40;;
9763;SDS011;4921;43.214;27.936;2023-02-01T10:02:44;6.90;;;5.53;;
9763;SDS011;4921;43.214;27.936;2023-02-01T10:05:14;7.70;;;5.23;;
9763;SDS011;4921;43.214;27.936;2023-02-01T10:07:47;6.70;;;4.97;;
9763;SDS011;4921;43.214;27.936;2023-02-01T10:13:09;6.53;;;4.83;;
9763;SDS011;4921;43.214;27.936;2023-02-01T10:15:56;5.30;;;4.80;;
9763;SDS011;4921;43.214;27.936;2023-02-01T10:18:37;7.07;;;5.70;;
9763;SDS011;4921;43.214;27.936;2023-02-01T10:21:20;4.70;;;4.20;;
9763;SDS011;4921;43.214;27.936;2023-02-01T10:24:11;7.50;;;4.73;;
9763;SDS011;4921;43.214;27.936;2023-02-01T10:26:47;9.23;;;5.30;;
9763;SDS011;4921;43.214;27.936;2023-02-01T10:29:19;6.77;;;4.37;;
9763;SDS011;4921;43.214;27.936;2023-02-01T10:31:50;5.23;;;4.43;;
9763;SDS011;4921;43.214;27.936;2023-02-01T10:34:18;5.73;;;4.50;;
9763;SDS011;4921;43.214;27.936;2023-02-01T10:36:54;10.23;;;5.60;;
9763;SDS011;4921;43.214;27.936;2023-02-01T10:39:23;7.13;;;4.73;;
9763;SDS011;4921;43.214;27.936;2023-02-01T10:41:50;11.70;;;4.50;;
9763;SDS011;4921;43.214;27.936;2023-02-01T10:44:19;6.73;;;4.33;;
9763;SDS011;4921;43.214;27.936;2023-02-01T10:46:51;4.63;;;4.10;;
9763;SDS011;4921;43.214;27.936;2023-02-01T10:49:20;5.47;;;4.37;;
9763;SDS011;4921;43.214;27.936;2023-02-01T10:51:51;7.80;;;4.60;;
9763;SDS011;4921;43.214;27.936;2023-02-01T10:54:31;4.90;;;4.30;;
9763;SDS011;4921;43.214;27.936;2023-02-01T10:56:59;4.10;;;3.67;;
9763;SDS011;4921;43.214;27.936;2023-02-01T10:59:27;5.37;;;4.10;;
9763;SDS011;4921;43.214;27.936;2023-02-01T11:01:58;5.60;;;3.83;;
9763;SDS011;4921;43.214;27.936;2023-02-01T11:04:27;5.73;;;4.50;;
9763;SDS011;4921;43.214;27.936;2023-02-01T11:07:05;6.17;;;4.53;;
9763;SDS011;4921;43.214;27.936;2023-02-01T11:09:35;5.07;;;4.13;;
9763;SDS011;4921;43.214;27.936;2023-02-01T11:12:10;6.83;;;5.00;;
9763;SDS011;4921;43.214;27.936;2023-02-01T11:14:51;6.80;;;4.67;;
9763;SDS011;4921;43.214;27.936;2023-02-01T11:17:26;5.37;;;4.50;;
9763;SDS011;4921;43.214;27.936;2023-02-01T11:19:59;4.70;;;3.83;;
9763;SDS011;4921;43.214;27.936;2023-02-01T11:22:29;6.33;;;4.17;;
9763;SDS011;4921;43.214;27.936;2023-02-01T11:24:56;4.90;;;3.80;;
9763;SDS011;4921;43.214;27.936;2023-02-01T11:27:25;6.17;;;4.03;;
9763;SDS011;4921;43.214;27.936;2023-02-01T11:29:58;7.07;;;4.03;;
9763;SDS011;4921;43.214;27.936;2023-02-01T11:32:29;5.80;;;3.77;;
9763;SDS011;4921;43.214;27.936;2023-02-01T11:34:57;5.97;;;4.10;;
9763;SDS011;4921;43.214;27.936;2023-02-01T11:37:30;7.07;;;4.40;;
9763;SDS011;4921;43.214;27.936;2023-02-01T11:40:02;8.50;;;4.03;;
9763;SDS011;4921;43.214;27.936;2023-02-01T11:42:53;7.67;;;4.50;;
9763;SDS011;4921;43.214;27.936;2023-02-01T11:45:24;5.03;;;3.90;;
9763;SDS011;4921;43.214;27.936;2023-02-01T11:47:53;6.00;;;3.87;;
9763;SDS011;4921;43.214;27.936;2023-02-01T11:50:23;6.20;;;4.07;;
9763;SDS011;4921;43.214;27.936;2023-02-01T11:53:01;6.03;;;3.67;;
9763;SDS011;4921;43.214;27.936;2023-02-01T11:55:39;5.33;;;3.90;;
9763;SDS011;4921;43.214;27.936;2023-02-01T11:58:22;3.97;;;3.57;;
9763;SDS011;4921;43.214;27.936;2023-02-01T12:01:05;5.93;;;3.57;;
9763;SDS011;4921;43.214;27.936;2023-02-01T12:06:34;4.90;;;4.27;;
9763;SDS011;4921;43.214;27.936;2023-02-01T12:09:19;4.77;;;3.40;;
9763;SDS011;4921;43.214;27.936;2023-02-01T12:11:58;6.27;;;3.63;;
9763;SDS011;4921;43.214;27.936;2023-02-01T12:14:34;4.03;;;3.00;;
9763;SDS011;4921;43.214;27.936;2023-02-01T12:20:11;4.73;;;3.50;;
9763;SDS011;4921;43.214;27.936;2023-02-01T12:22:52;5.53;;;3.37;;
9763;SDS011;4921;43.214;27.936;2023-02-01T12:25:34;5.67;;;3.60;;
9763;SDS011;4921;43.214;27.936;2023-02-01T12:28:14;3.67;;;3.30;;
9763;SDS011;4921;43.214;27.936;2023-02-01T12:33:56;4.23;;;3.07;;
9763;SDS011;4921;43.214;27.936;2023-02-01T12:36:32;3.93;;;3.30;;
9763;SDS011;4921;43.214;27.936;2023-02-01T12:39:07;3.60;;;3.30;;
9763;SDS011;4921;43.214;27.936;2023-02-01T12:41:47;4.33;;;3.30;;
9763;SDS011;4921;43.214;27.936;2023-02-01T12:44:24;4.17;;;3.23;;
9763;SDS011;4921;43.214;27.936;2023-02-01T12:46:57;7.03;;;3.10;;
9763;SDS011;4921;43.214;27.936;2023-02-01T12:49:29;4.70;;;3.17;;
9763;SDS011;4921;43.214;27.936;2023-02-01T12:52:04;4.80;;;3.30;;
9763;SDS011;4921;43.214;27.936;2023-02-01T12:54:38;6.17;;;3.20;;
9763;SDS011;4921;43.214;27.936;2023-02-01T12:57:14;3.53;;;3.23;;
9763;SDS011;4921;43.214;27.936;2023-02-01T12:59:46;5.37;;;3.33;;
9763;SDS011;4921;43.214;27.936;2023-02-01T13:02:22;3.17;;;2.90;;
9763;SDS011;4921;43.214;27.936;2023-02-01T13:04:56;3.07;;;2.87;;
9763;SDS011;4921;43.214;27.936;2023-02-01T13:07:29;3.47;;;3.17;;
9763;SDS011;4921;43.214;27.936;2023-02-01T13:10:02;3.27;;;2.97;;
9763;SDS011;4921;43.214;27.936;2023-02-01T13:12:37;3.13;;;2.70;;
9763;SDS011;4921;43.214;27.936;2023-02-01T13:15:10;3.47;;;3.17;;
9763;SDS011;4921;43.214;27.936;2023-02-01T13:17:41;5.60;;;3.87;;
9763;SDS011;4921;43.214;27.936;2023-02-01T13:20:15;7.90;;;3.93;;
9763;SDS011;4921;43.214;27.936;2023-02-01T13:22:47;3.53;;;3.23;;
9763;SDS011;4921;43.214;27.936;2023-02-01T13:25:23;7.53;;;4.40;;
9763;SDS011;4921;43.214;27.936;2023-02-01T13:27:59;4.90;;;3.50;;
9763;SDS011;4921;43.214;27.936;2023-02-01T13:30:30;3.63;;;3.00;;
9763;SDS011;4921;43.214;27.936;2023-02-01T13:33:11;6.07;;;3.33;;
9763;SDS011;4921;43.214;27.936;2023-02-01T13:35:58;4.07;;;3.07;;
9763;SDS011;4921;43.214;27.936;2023-02-01T13:39:01;4.40;;;3.00;;
9763;SDS011;4921;43.214;27.936;2023-02-01T13:41:58;3.57;;;3.07;;
9763;SDS011;4921;43.214;27.936;2023-02-01T13:44:30;3.37;;;3.07;;
9763;SDS011;4921;43.214;27.936;2023-02-01T13:47:08;5.50;;;3.10;;
9763;SDS011;4921;43.214;27.936;2023-02-01T13:49:42;3.43;;;3.10;;
9763;SDS011;4921;43.214;27.936;2023-02-01T13:52:20;6.90;;;2.73;;
9763;SDS011;4921;43.214;27.936;2023-02-01T13:55:00;4.53;;;3.20;;
9763;SDS011;4921;43.214;27.936;2023-02-01T13:58:02;3.43;;;2.53;;
9763;SDS011;4921;43.214;27.936;2023-02-01T14:00:39;3.47;;;2.97;;
9763;SDS011;4921;43.214;27.936;2023-02-01T14:03:15;3.90;;;2.43;;
9763;SDS011;4921;43.214;27.936;2023-02-01T14:15:19;7.30;;;3.13;;
9763;SDS011;4921;43.214;27.936;2023-02-01T14:17:50;3.27;;;2.87;;
9763;SDS011;4921;43.214;27.936;2023-02-01T14:23:21;5.00;;;2.60;;
9763;SDS011;4921;43.214;27.936;2023-02-01T14:28:52;3.13;;;2.70;;
9763;SDS011;4921;43.214;27.936;2023-02-01T14:31:40;3.47;;;3.17;;
9763;SDS011;4921;43.214;27.936;2023-02-01T14:34:20;4.70;;;3.10;;
9763;SDS011;4921;43.214;27.936;2023-02-01T14:36:52;2.67;;;2.47;;
9763;SDS011;4921;43.214;27.936;2023-02-01T14:39:27;3.10;;;2.77;;
9763;SDS011;4921;43.214;27.936;2023-02-01T14:42:02;2.97;;;2.70;;
9763;SDS011;4921;43.214;27.936;2023-02-01T14:44:33;3.40;;;3.10;;
9763;SDS011;4921;43.214;27.936;2023-02-01T14:47:09;6.30;;;2.97;;
9763;SDS011;4921;43.214;27.936;2023-02-01T14:52:50;4.30;;;3.00;;
9763;SDS011;4921;43.214;27.936;2023-02-01T14:55:29;5.33;;;3.23;;
9763;SDS011;4921;43.214;27.936;2023-02-01T14:58:00;3.97;;;3.37;;
9763;SDS011;4921;43.214;27.936;2023-02-01T15:00:32;4.43;;;3.33;;
9763;SDS011;4921;43.214;27.936;2023-02-01T15:03:15;3.97;;;3.20;;
9763;SDS011;4921;43.214;27.936;2023-02-01T15:05:55;5.50;;;3.93;;
9763;SDS011;4921;43.214;27.936;2023-02-01T15:08:24;8.83;;;4.63;;
9763;SDS011;4921;43.214;27.936;2023-02-01T15:10:53;7.37;;;4.50;;
9763;SDS011;4921;43.214;27.936;2023-02-01T15:13:22;7.37;;;5.10;;
9763;SDS011;4921;43.214;27.936;2023-02-01T15:16:01;9.13;;;5.70;;
9763;SDS011;4921;43.214;27.936;2023-02-01T15:18:29;11.47;;;6.60;;
9763;SDS011;4921;43.214;27.936;2023-02-01T15:20:58;8.57;;;6.40;;
9763;SDS011;4921;43.214;27.936;2023-02-01T15:23:27;11.10;;;7.33;;
9763;SDS011;4921;43.214;27.936;2023-02-01T15:25:54;13.40;;;7.33;;
9763;SDS011;4921;43.214;27.936;2023-02-01T15:28:21;15.63;;;7.80;;
9763;SDS011;4921;43.214;27.936;2023-02-01T15:30:52;9.70;;;7.27;;
9763;SDS011;4921;43.214;27.936;2023-02-01T15:33:24;14.70;;;7.43;;
9763;SDS011;4921;43.214;27.936;2023-02-01T15:35:52;13.07;;;8.00;;
9763;SDS011;4921;43.214;27.936;2023-02-01T15:41:11;13.33;;;8.57;;
9763;SDS011;4921;43.214;27.936;2023-02-01T15:43:41;14.43;;;8.50;;
9763;SDS011;4921;43.214;27.936;2023-02-01T15:46:11;12.93;;;8.80;;
9763;SDS011;4921;43.214;27.936;2023-02-01T15:48:42;13.67;;;8.83;;
9763;SDS011;4921;43.214;27.936;2023-02-01T15:51:11;15.43;;;9.00;;
9763;SDS011;4921;43.214;27.936;2023-02-01T15:53:44;13.07;;;8.90;;
9763;SDS011;4921;43.214;27.936;2023-02-01T15:56:21;12.93;;;8.63;;
9763;SDS011;4921;43.214;27.936;2023-02-01T15:58:50;13.90;;;7.60;;
9763;SDS011;4921;43.214;27.936;2023-02-01T16:01:20;10.23;;;7.13;;
9763;SDS011;4921;43.214;27.936;2023-02-01T16:03:47;11.07;;;6.93;;